Time;durP1;ratioP1;P1;durP2;ratioP2;P2;SDS_P1;SDS_P2;PMS_P1;PMS_P2;Temp;Humidity;BMP_temperature;BMP_pressure;BME280_temperature;BME280_humidity;BME280_pressure;Samples;Min_cycle;Max_cycle;Signal;HPM_P1;HPM_P2
2021/11/04 00:00:18;;;;;;;;;;;;;;;11.71;96.57;100010.03;5051008;28;865;-59
2021/11/04 00:02:45;;;;;;;;;;;;;;;11.72;96.66;100000.53;5050853;28;814;-59
2021/11/04 00:05:12;;;;;;;;;;;;;;;11.74;96.57;100006.44;5050644;28;1911;-59
2021/11/04 00:07:39;;;;;;;;;;;;;;;11.76;96.59;100004.84;5050679;28;826;-59
2021/11/04 00:10:08;;;;;;;;;;;;;;;11.79;96.64;100006.78;5032879;28;1222;-59
2021/11/04 00:12:34;;;;;;;;;;;;;;;11.80;96.23;100011.16;5053101;28;838;-59
2021/11/04 00:15:01;;;;;;;;;;;;;;;11.79;96.33;100004.03;5054305;28;886;-59
2021/11/04 00:17:28;;;;;;;;;;;;;;;11.81;96.38;99998.09;5054222;28;1161;-59
2021/11/04 00:19:54;;;;;;;;;;;;;;;11.81;96.19;100004.41;5054170;28;865;-59
2021/11/04 00:22:21;;;;;;;;;;;;;;;11.83;96.27;100004.78;5054129;28;921;-59
2021/11/04 00:24:47;;;;;;;;;;;;;;;11.76;95.92;100004.06;5036129;28;890;-59
2021/11/04 00:27:14;;;;;;;;;;;;;;;11.65;96.19;99999.38;5054071;28;1966;-59
2021/11/04 00:29:41;;;;;;;;;;;;;;;11.61;96.28;100000.59;5053983;28;842;-59
2021/11/04 00:32:08;;;;;;;;;;;;;;;11.56;96.10;99998.25;5053993;28;890;-59
2021/11/04 00:34:35;;;;;;;;;;;;;;;11.49;95.90;99999.06;5053931;28;842;-59
2021/11/04 00:37:01;;;;;;;;;;;;;;;11.45;96.31;99995.53;5053783;28;814;-59
2021/11/04 00:39:28;;;;;;;;;;;;;;;11.48;96.83;100002.25;5053961;28;811;-59
2021/11/04 00:41:54;;;;;;;;;;;;;;;11.51;96.88;99998.69;5053795;28;810;-59
2021/11/04 00:44:21;;;;;;;;;;;;;;;11.56;96.77;99996.25;5053681;28;894;-59
2021/11/04 00:46:47;;;;;;;;;;;;;;;11.58;96.53;99999.41;5053621;28;1894;-59
2021/11/04 00:49:14;;;;;;;;;;;;;;;11.63;96.78;100001.75;5053640;28;916;-59
2021/11/04 00:51:41;;;;;;;;;;;;;;;11.69;96.41;99998.56;5053762;28;885;-59
2021/11/04 00:54:07;;;;;;;;;;;;;;;11.74;96.72;99998.16;5053845;28;962;-59
2021/11/04 00:56:34;;;;;;;;;;;;;;;11.75;96.58;99997.72;5053351;28;1249;-59
2021/11/04 00:59:00;;;;;;;;;;;;;;;11.78;96.47;99988.63;5053374;28;807;-59
2021/11/04 01:01:26;;;;;;;;;;;;;;;11.84;96.45;99992.53;5053383;28;830;-59
2021/11/04 01:03:53;;;;;;;;;;;;;;;11.88;96.04;99986.16;5053518;28;842;-59
2021/11/04 01:06:21;;;;;;;;;;;;;;;11.93;96.28;99992.09;5053219;28;1967;-59
2021/11/04 01:08:48;;;;;;;;;;;;;;;11.95;96.26;99995.25;5053152;28;825;-59
2021/11/04 01:11:15;;;;;;;;;;;;;;;11.96;96.23;99996.81;5053281;28;811;-59
2021/11/04 01:13:43;;;;;;;;;;;;;;;11.97;96.01;99995.63;5053223;28;834;-59
2021/11/04 01:16:09;;;;;;;;;;;;;;;11.97;96.25;99992.88;5053154;28;846;-59
2021/11/04 01:18:36;;;;;;;;;;;;;;;11.98;96.14;99986.13;5053103;28;846;-59
2021/11/04 01:21:03;;;;;;;;;;;;;;;11.98;96.19;99991.66;5053100;28;822;-59
2021/11/04 01:23:30;;;;;;;;;;;;;;;11.99;95.77;99989.66;5034780;28;1288;-59
2021/11/04 01:25:56;;;;;;;;;;;;;;;11.91;95.89;99982.63;5052769;28;1941;-59
2021/11/04 01:28:23;;;;;;;;;;;;;;;11.82;95.86;99988.56;5053081;28;854;-59
2021/11/04 01:30:49;;;;;;;;;;;;;;;11.76;96.05;99985.47;5053014;28;831;-59
2021/11/04 01:33:16;;;;;;;;;;;;;;;11.71;96.23;99988.66;5052811;28;847;-59
2021/11/04 01:35:42;;;;;;;;;;;;;;;11.73;96.19;99988.25;5052711;28;841;-59
2021/11/04 01:38:09;;;;;;;;;;;;;;;11.73;96.58;99985.47;5052761;28;909;-59
2021/11/04 01:40:36;;;;;;;;;;;;;;;11.69;96.45;99988.25;5052666;28;802;-59
2021/11/04 01:43:02;;;;;;;;;;;;;;;11.69;96.66;99990.25;5052706;28;822;-59
2021/11/04 01:45:29;;;;;;;;;;;;;;;11.68;96.69;99995.00;5034574;28;1882;-59
2021/11/04 01:47:56;;;;;;;;;;;;;;;11.68;96.50;99992.25;5052877;28;842;-59
2021/11/04 01:50:23;;;;;;;;;;;;;;;11.71;96.99;99999.72;5052540;28;925;-59
2021/11/04 01:52:50;;;;;;;;;;;;;;;11.75;96.90;99989.41;5052531;28;806;-59
2021/11/04 01:55:21;;;;;;;;;;;;;;;11.79;96.38;99990.19;5052027;28;1205;-59
2021/11/04 01:57:48;;;;;;;;;;;;;;;11.82;96.39;99985.81;5052356;28;846;-59
2021/11/04 02:00:17;;;;;;;;;;;;;;;11.81;96.46;99993.34;5052593;28;833;-59
2021/11/04 02:02:46;;;;;;;;;;;;;;;11.85;96.62;99999.63;5052148;28;954;-59
2021/11/04 02:05:15;;;;;;;;;;;;;;;11.88;96.62;100000.81;5052186;28;858;-59
2021/11/04 02:07:51;;;;;;;;;;;;;;;11.91;96.64;100004.78;5052147;28;818;-59
2021/11/04 02:10:37;;;;;;;;;;;;;;;11.93;96.70;100002.41;5052151;28;921;-59
2021/11/04 02:13:11;;;;;;;;;;;;;;;11.94;96.25;100004.75;5052554;28;779;-59
2021/11/04 02:15:40;;;;;;;;;;;;;;;11.97;96.37;100003.13;5052012;28;822;-59
2021/11/04 02:18:08;;;;;;;;;;;;;;;11.98;96.40;100001.97;5052027;28;830;-59
2021/11/04 02:20:53;;;;;;;;;;;;;;;12.00;96.28;100003.13;5051804;28;983;-59
2021/11/04 02:23:40;;;;;;;;;;;;;;;12.01;95.86;99995.59;5051971;28;827;-59
2021/11/04 02:26:07;;;;;;;;;;;;;;;12.02;96.34;100013.81;5011197;28;1890;-59
2021/11/04 02:28:36;;;;;;;;;;;;;;;12.06;96.58;100009.03;5051820;28;870;-59
2021/11/04 02:31:03;;;;;;;;;;;;;;;12.10;96.21;100008.97;5051811;28;842;-59
2021/11/04 02:33:30;;;;;;;;;;;;;;;12.13;96.15;100008.19;5051520;28;881;-59
2021/11/04 02:35:58;;;;;;;;;;;;;;;12.15;96.10;100006.56;5051220;28;907;-59
2021/11/04 02:38:28;;;;;;;;;;;;;;;12.15;95.99;100003.03;5051634;28;886;-59
2021/11/04 02:40:55;;;;;;;;;;;;;;;12.13;96.05;100005.41;5051672;28;806;-59
2021/11/04 02:43:22;;;;;;;;;;;;;;;12.14;96.14;100006.97;5051537;28;870;-59
2021/11/04 02:45:49;;;;;;;;;;;;;;;12.18;96.43;100007.72;5033588;28;2004;-59
2021/11/04 02:48:19;;;;;;;;;;;;;;;12.20;96.38;100016.44;5051465;28;1157;-59
2021/11/04 02:50:46;;;;;;;;;;;;;;;12.20;96.24;100016.44;5051434;28;856;-59
2021/11/04 02:53:15;;;;;;;;;;;;;;;12.21;96.20;100020.78;5051451;28;1018;-59
2021/11/04 02:55:42;;;;;;;;;;;;;;;12.19;96.19;100021.19;5051256;28;1229;-59
2021/11/04 02:58:09;;;;;;;;;;;;;;;12.20;96.64;100019.97;5051546;28;828;-59
2021/11/04 03:00:38;;;;;;;;;;;;;;;12.25;96.36;100021.53;5051406;28;906;-59
2021/11/04 03:03:05;;;;;;;;;;;;;;;12.27;96.21;100030.25;5051347;28;827;-59
2021/11/04 03:05:32;;;;;;;;;;;;;;;12.28;96.07;100023.50;5051079;28;1967;-59
2021/11/04 03:07:58;;;;;;;;;;;;;;;12.32;96.22;100015.16;5051354;28;960;-59
2021/11/04 03:10:25;;;;;;;;;;;;;;;12.35;96.11;100020.66;5051224;28;879;-59
2021/11/04 03:12:54;;;;;;;;;;;;;;;12.40;96.01;100019.44;5051507;28;810;-59
2021/11/04 03:15:22;;;;;;;;;;;;;;;12.47;96.25;100013.81;5051166;28;803;-59
2021/11/04 03:17:51;;;;;;;;;;;;;;;12.57;96.51;100015.72;5051829;28;736;-59
2021/11/04 03:20:18;;;;;;;;;;;;;;;12.69;96.37;100021.94;5051424;28;839;-59
2021/11/04 03:22:46;;;;;;;;;;;;;;;12.76;96.51;100014.34;5051438;28;878;-59
2021/11/04 03:25:18;;;;;;;;;;;;;;;12.82;96.41;100021.00;5051390;28;869;-59
2021/11/04 03:27:46;;;;;;;;;;;;;;;12.87;96.55;100020.53;5051429;28;802;-59
2021/11/04 03:30:14;;;;;;;;;;;;;;;12.93;96.52;100026.44;5051458;28;830;-59
2021/11/04 03:32:42;;;;;;;;;;;;;;;12.94;96.24;100030.00;5051142;28;900;-59
2021/11/04 03:35:09;;;;;;;;;;;;;;;12.92;96.11;100027.63;5050974;28;836;-59
2021/11/04 03:37:37;;;;;;;;;;;;;;;12.87;96.09;100033.63;5051111;28;810;-59
2021/11/04 03:40:04;;;;;;;;;;;;;;;12.83;96.24;100032.88;5051065;28;868;-59
2021/11/04 03:42:31;;;;;;;;;;;;;;;12.81;96.19;100043.59;5050911;28;910;-59
2021/11/04 03:44:59;;;;;;;;;;;;;;;12.79;96.34;100044.00;5051360;28;823;-59
2021/11/04 03:47:29;;;;;;;;;;;;;;;12.77;95.93;100034.53;5054697;28;1889;-59
2021/11/04 03:49:59;;;;;;;;;;;;;;;12.75;96.26;100034.16;5054811;28;943;-59
2021/11/04 03:52:27;;;;;;;;;;;;;;;12.76;96.35;100042.06;5054847;28;885;-59
2021/11/04 03:54:55;;;;;;;;;;;;;;;12.80;96.56;100042.81;5054612;28;1210;-59
2021/11/04 03:57:25;;;;;;;;;;;;;;;12.86;96.47;100035.59;5054843;28;866;-59
2021/11/04 03:59:52;;;;;;;;;;;;;;;12.93;96.66;100034.75;5055006;28;913;-59
2021/11/04 04:02:22;;;;;;;;;;;;;;;12.99;96.47;100035.84;5054306;28;860;-59
2021/11/04 04:04:52;;;;;;;;;;;;;;;13.03;96.36;100033.06;5054540;28;924;-59
2021/11/04 04:07:19;;;;;;;;;;;;;;;13.06;96.27;100037.78;5054416;28;1973;-59
2021/11/04 04:09:46;;;;;;;;;;;;;;;13.10;96.41;100033.00;5054333;28;958;-59
2021/11/04 04:12:13;;;;;;;;;;;;;;;13.13;96.39;100034.16;5054302;28;811;-59
2021/11/04 04:14:39;;;;;;;;;;;;;;;13.15;96.60;100040.84;5054266;28;827;-59
2021/11/04 04:17:06;;;;;;;;;;;;;;;13.17;96.70;100041.22;5054271;28;885;-59
2021/11/04 04:19:32;;;;;;;;;;;;;;;13.21;96.43;100043.97;5054215;28;873;-59
2021/11/04 04:21:59;;;;;;;;;;;;;;;13.21;96.44;100044.75;5054161;28;819;-59
2021/11/04 04:24:25;;;;;;;;;;;;;;;13.22;96.41;100048.31;5054151;28;835;-59
2021/11/04 04:26:52;;;;;;;;;;;;;;;13.20;96.60;100051.47;5053988;28;1890;-59
2021/11/04 04:29:17;;;;;;;;;;;;;;;13.18;96.63;100053.88;5053987;28;998;-59
2021/11/04 04:31:44;;;;;;;;;;;;;;;13.16;96.63;100049.97;5053998;28;1188;-59
2021/11/04 04:34:11;;;;;;;;;;;;;;;13.13;96.51;100048.81;5053759;28;788;-59
2021/11/04 04:36:37;;;;;;;;;;;;;;;13.10;96.64;100055.19;5053971;28;980;-59
2021/11/04 04:39:04;;;;;;;;;;;;;;;13.07;96.77;100056.78;5053865;28;838;-59
2021/11/04 04:41:31;;;;;;;;;;;;;;;13.06;96.80;100052.44;5053736;28;906;-59
2021/11/04 04:43:58;;;;;;;;;;;;;;;13.08;96.87;100068.69;5053833;28;897;-59
2021/11/04 04:46:24;;;;;;;;;;;;;;;13.08;96.92;100072.25;5053683;28;1952;-59
2021/11/04 04:48:52;;;;;;;;;;;;;;;13.11;96.94;100080.94;5053777;28;815;-59
2021/11/04 04:51:18;;;;;;;;;;;;;;;13.13;96.93;100082.09;5053834;28;859;-59
2021/11/04 04:53:45;;;;;;;;;;;;;;;13.15;97.04;100087.25;5053725;28;979;-59
2021/11/04 04:56:12;;;;;;;;;;;;;;;13.12;97.26;100079.72;5053559;28;1475;-59
2021/11/04 04:58:39;;;;;;;;;;;;;;;13.18;97.04;100081.63;5053156;28;881;-59
2021/11/04 05:01:06;;;;;;;;;;;;;;;13.20;97.14;100090.34;5053546;28;862;-59
2021/11/04 05:03:32;;;;;;;;;;;;;;;13.22;97.07;100095.50;5053564;28;842;-59
2021/11/04 05:05:59;;;;;;;;;;;;;;;13.21;97.20;100091.16;5053481;28;1910;-59
2021/11/04 05:08:26;;;;;;;;;;;;;;;13.19;96.97;100091.56;5053557;28;1013;-59
2021/11/04 05:10:51;;;;;;;;;;;;;;;13.19;96.92;100093.56;5053440;28;897;-59
2021/11/04 05:18:28;;;;;;;;;;;;;;;13.24;97.30;100093.09;5571576;22;1833;-62
2021/11/04 05:20:54;;;;;;;;;;;;;;;13.28;97.25;100100.19;5053255;28;873;-61
2021/11/04 05:23:21;;;;;;;;;;;;;;;13.30;97.31;100099.00;5053067;28;782;-62
2021/11/04 05:25:48;;;;;;;;;;;;;;;13.33;97.23;100103.72;5052858;28;1910;-61
2021/11/04 05:28:15;;;;;;;;;;;;;;;13.36;97.33;100111.25;5052994;28;802;-62
2021/11/04 05:30:42;;;;;;;;;;;;;;;13.37;97.29;100105.25;5052871;28;833;-62
2021/11/04 05:33:08;;;;;;;;;;;;;;;13.41;97.26;100105.22;5053008;28;877;-61
2021/11/04 05:35:35;;;;;;;;;;;;;;;13.46;97.25;100116.66;5052812;28;865;-62
2021/11/04 05:38:02;;;;;;;;;;;;;;;13.50;97.13;100118.59;5052797;28;825;-62
2021/11/04 05:40:28;;;;;;;;;;;;;;;13.55;97.21;100118.94;5052705;28;849;-62
2021/11/04 05:42:54;;;;;;;;;;;;;;;13.63;97.10;100123.22;5052701;28;802;-62
2021/11/04 05:45:21;;;;;;;;;;;;;;;13.66;97.22;100121.59;5051417;28;783;-62
2021/11/04 05:47:48;;;;;;;;;;;;;;;13.70;97.08;100130.66;5052370;28;1885;-61
2021/11/04 05:50:15;;;;;;;;;;;;;;;13.75;96.97;100140.53;5052575;28;850;-61
2021/11/04 05:52:42;;;;;;;;;;;;;;;13.77;96.97;100146.44;5052482;28;866;-61
2021/11/04 05:55:09;;;;;;;;;;;;;;;13.79;96.93;100146.81;5052486;28;849;-62
2021/11/04 05:57:35;;;;;;;;;;;;;;;13.83;96.85;100142.00;5052356;28;862;-61
2021/11/04 06:00:03;;;;;;;;;;;;;;;13.84;96.79;100144.34;5052364;28;894;-62
2021/11/04 06:02:29;;;;;;;;;;;;;;;13.86;96.81;100147.50;5052266;28;854;-61
2021/11/04 06:04:57;;;;;;;;;;;;;;;13.91;96.69;100140.69;5052286;28;857;-61
2021/11/04 06:07:25;;;;;;;;;;;;;;;13.96;96.48;100147.81;5052134;28;1890;-61
2021/11/04 06:09:51;;;;;;;;;;;;;;;13.96;96.45;100145.81;5051176;28;869;-61
2021/11/04 06:12:18;;;;;;;;;;;;;;;14.02;96.51;100149.69;5052157;28;819;-61
2021/11/04 06:14:43;;;;;;;;;;;;;;;14.09;96.46;100146.81;5052075;28;845;-61
2021/11/04 06:17:10;;;;;;;;;;;;;;;14.15;96.27;100149.91;5051859;28;887;-61
2021/11/04 06:19:37;;;;;;;;;;;;;;;14.17;96.33;100161.41;5051844;28;1413;-61
2021/11/04 06:22:04;;;;;;;;;;;;;;;14.25;96.23;100157.31;5051990;28;815;-62
2021/11/04 06:24:30;;;;;;;;;;;;;;;14.35;96.16;100157.59;5052061;28;870;-61
2021/11/04 06:26:58;;;;;;;;;;;;;;;14.40;95.83;100151.53;5051831;28;1914;-61
2021/11/04 06:29:24;;;;;;;;;;;;;;;14.48;95.75;100155.78;5051895;28;850;-61
2021/11/04 06:31:50;;;;;;;;;;;;;;;14.49;95.44;100157.38;5051774;28;858;-62
2021/11/04 06:34:18;;;;;;;;;;;;;;;14.49;95.43;100160.94;5051858;28;889;-61
2021/11/04 06:36:44;;;;;;;;;;;;;;;14.54;95.57;100154.09;5051828;28;827;-62
2021/11/04 06:39:11;;;;;;;;;;;;;;;14.62;95.28;100163.16;5051859;28;886;-61
2021/11/04 06:41:38;;;;;;;;;;;;;;;14.63;95.00;100164.72;5051994;28;806;-62
2021/11/04 06:44:05;;;;;;;;;;;;;;;14.59;94.91;100161.22;5051606;28;854;-61
2021/11/04 06:46:32;;;;;;;;;;;;;;;14.64;94.91;100166.31;5051397;28;1958;-61
2021/11/04 06:49:05;;;;;;;;;;;;;;;14.77;94.83;100158.16;5051566;28;842;-62
2021/11/04 06:51:32;;;;;;;;;;;;;;;14.89;94.53;100158.34;5051553;28;798;-62
2021/11/04 06:54:02;;;;;;;;;;;;;;;14.94;94.13;100154.28;5051488;28;846;-61
2021/11/04 06:56:31;;;;;;;;;;;;;;;14.98;93.99;100151.41;5051541;28;810;-61
2021/11/04 06:58:59;;;;;;;;;;;;;;;15.00;93.95;100157.34;5051717;28;999;-61
2021/11/04 07:01:26;;;;;;;;;;;;;;;15.03;93.78;100154.50;5051608;28;839;-61
2021/11/04 07:04:07;;;;;;;;;;;;;;;15.07;93.32;100155.25;5051494;28;846;-61
2021/11/04 07:06:44;;;;;;;;;;;;;;;15.08;93.55;100165.19;5051432;28;1906;-61
2021/11/04 07:09:11;;;;;;;;;;;;;;;15.10;93.64;100154.38;5051433;28;900;-62
2021/11/04 07:11:38;;;;;;;;;;;;;;;15.11;93.33;100157.97;5051651;28;785;-62
2021/11/04 07:14:05;;;;;;;;;;;;;;;15.16;93.49;100156.69;5051416;28;825;-62
2021/11/04 07:16:32;;;;;;;;;;;;;;;15.25;93.20;100163.25;5051191;28;854;-62
2021/11/04 07:19:00;;;;;;;;;;;;;;;15.28;92.80;100167.22;5040411;28;1425;-62
2021/11/04 07:21:33;;;;;;;;;;;;;;;15.39;92.84;100164.22;5033851;28;839;-62
2021/11/04 07:24:01;;;;;;;;;;;;;;;15.37;92.02;100173.00;5035426;28;807;-62
2021/11/04 07:26:47;;;;;;;;;;;;;;;15.46;92.25;100169.66;5035597;28;1968;-62
2021/11/04 07:29:14;;;;;;;;;;;;;;;15.60;91.86;100163.81;5035266;28;802;-62
2021/11/04 07:31:41;;;;;;;;;;;;;;;15.73;91.58;100164.00;5035157;28;849;-62
2021/11/04 07:34:09;;;;;;;;;;;;;;;15.86;90.63;100166.91;5035178;28;806;-61
2021/11/04 07:36:38;;;;;;;;;;;;;;;16.04;90.17;100163.72;5017359;28;933;-62
2021/11/04 07:39:05;;;;;;;;;;;;;;;16.29;89.58;100161.19;5035029;28;885;-62
2021/11/04 07:41:32;;;;;;;;;;;;;;;16.29;88.62;100165.97;5035113;28;782;-62
2021/11/04 07:43:59;;;;;;;;;;;;;;;16.29;88.76;100163.19;5017251;28;949;-62
2021/11/04 07:46:26;;;;;;;;;;;;;;;16.79;86.34;100159.22;5034777;28;1943;-62
2021/11/04 07:48:53;;;;;;;;;;;;;;;16.80;85.47;100158.03;5034899;28;861;-62
2021/11/04 07:51:20;;;;;;;;;;;;;;;16.79;85.31;100159.22;5035032;28;849;-62
2021/11/04 07:53:47;;;;;;;;;;;;;;;17.01;84.80;100161.50;5034802;28;830;-62
2021/11/04 07:56:14;;;;;;;;;;;;;;;17.09;83.41;100165.66;5034701;28;835;-62
2021/11/04 07:58:39;;;;;;;;;;;;;;;16.85;82.65;100171.44;5016976;28;897;-62
2021/11/04 08:01:06;;;;;;;;;;;;;;;16.72;82.64;100162.19;5034784;28;811;-62
2021/11/04 08:03:32;;;;;;;;;;;;;;;16.42;83.59;100166.09;5034819;28;818;-62
2021/11/04 08:05:59;;;;;;;;;;;;;;;16.48;84.05;100170.72;5034511;28;1894;-62
2021/11/04 08:08:26;;;;;;;;;;;;;;;16.61;83.04;100179.19;5016859;28;1185;-62
2021/11/04 08:10:54;;;;;;;;;;;;;;;17.09;83.12;100176.84;5034458;28;830;-62
2021/11/04 08:13:22;;;;;;;;;;;;;;;17.62;79.34;100180.22;5034545;28;874;-62
2021/11/04 08:15:48;;;;;;;;;;;;;;;17.65;78.87;100173.75;5034450;28;953;-62
2021/11/04 08:18:15;;;;;;;;;;;;;;;17.53;79.07;100180.84;5037569;28;1194;-62
2021/11/04 08:20:42;;;;;;;;;;;;;;;17.21;80.83;100176.13;5054572;28;901;-62
2021/11/04 08:23:09;;;;;;;;;;;;;;;17.29;80.43;100174.72;5054224;28;806;-62
2021/11/04 08:25:35;;;;;;;;;;;;;;;17.27;81.31;100168.00;5054023;28;1925;-62
2021/11/04 08:28:02;;;;;;;;;;;;;;;17.53;80.37;100168.91;5054118;28;815;-62
2021/11/04 08:30:29;;;;;;;;;;;;;;;17.60;79.92;100171.47;5054069;28;842;-62
2021/11/04 08:32:55;;;;;;;;;;;;;;;17.73;80.03;100174.31;5052992;28;806;-62
2021/11/04 08:35:22;;;;;;;;;;;;;;;17.68;79.00;100172.84;5053927;28;868;-62
2021/11/04 08:37:49;;;;;;;;;;;;;;;17.72;79.14;100176.34;5053973;28;853;-62
2021/11/04 08:40:16;;;;;;;;;;;;;;;17.89;79.84;100179.09;5053853;28;889;-62
2021/11/04 08:42:43;;;;;;;;;;;;;;;18.02;78.60;100168.72;5053803;28;838;-62
2021/11/04 08:45:10;;;;;;;;;;;;;;;18.16;77.18;100173.88;5053701;28;826;-62
2021/11/04 08:47:37;;;;;;;;;;;;;;;18.31;77.56;100181.84;5053650;28;1878;-62
2021/11/04 08:50:05;;;;;;;;;;;;;;;18.41;75.35;100172.31;5053720;28;826;-62
2021/11/04 08:52:32;;;;;;;;;;;;;;;18.48;75.80;100174.91;5053736;28;830;-62
2021/11/04 08:54:59;;;;;;;;;;;;;;;18.81;74.61;100173.91;5053573;28;830;-62
2021/11/04 08:57:25;;;;;;;;;;;;;;;18.91;75.91;100167.94;5053565;28;810;-62
2021/11/04 08:59:52;;;;;;;;;;;;;;;19.42;73.55;100166.25;5053549;28;846;-62
2021/11/04 09:02:19;;;;;;;;;;;;;;;19.32;73.04;100165.38;5053459;28;822;-62
2021/11/04 09:04:46;;;;;;;;;;;;;;;19.69;71.54;100155.22;5053512;28;818;-62
2021/11/04 09:07:20;;;;;;;;;;;;;;;19.47;71.83;100154.44;5053323;28;1879;-62
2021/11/04 09:09:48;;;;;;;;;;;;;;;19.27;72.46;100163.94;5053294;28;850;-62
2021/11/04 09:12:15;;;;;;;;;;;;;;;19.05;71.99;100160.28;5053297;28;802;-62
2021/11/04 09:14:42;;;;;;;;;;;;;;;18.54;73.36;100164.72;5053429;28;849;-62
2021/11/04 09:17:10;;;;;;;;;;;;;;;18.35;74.19;100165.75;5053138;28;895;-62
2021/11/04 09:19:37;;;;;;;;;;;;;;;18.30;74.28;100158.66;5053060;28;1441;-62
2021/11/04 09:22:02;;;;;;;;;;;;;;;18.40;74.08;100156.78;5053143;28;826;-62
2021/11/04 09:24:30;;;;;;;;;;;;;;;18.61;73.76;100157.34;5053025;28;799;-62
2021/11/04 09:26:57;;;;;;;;;;;;;;;18.71;73.54;100145.78;5052952;28;1913;-63
2021/11/04 09:29:26;;;;;;;;;;;;;;;18.71;73.15;100156.19;5052554;28;896;-62
2021/11/04 09:31:55;;;;;;;;;;;;;;;18.46;72.44;100143.78;5053010;28;823;-62
2021/11/04 09:34:24;;;;;;;;;;;;;;;18.26;73.76;100148.81;5053250;28;1185;-62
2021/11/04 09:36:51;;;;;;;;;;;;;;;17.86;74.58;100146.41;5052854;28;814;-62
2021/11/04 09:39:18;;;;;;;;;;;;;;;17.78;75.01;100145.06;5052779;28;869;-62
2021/11/04 09:41:44;;;;;;;;;;;;;;;17.88;74.48;100152.34;5053038;28;808;-61
2021/11/04 09:44:12;;;;;;;;;;;;;;;17.89;74.83;100154.72;5052515;28;830;-62
2021/11/04 09:46:40;;;;;;;;;;;;;;;18.09;74.09;100146.16;5052585;28;1951;-62
2021/11/04 09:49:08;;;;;;;;;;;;;;;18.12;73.74;100145.25;5052487;28;1141;-62
2021/11/04 09:51:34;;;;;;;;;;;;;;;18.27;73.90;100150.41;5052573;28;941;-62
2021/11/04 09:54:01;;;;;;;;;;;;;;;18.47;73.79;100139.75;5051225;28;865;-62
2021/11/04 09:56:28;;;;;;;;;;;;;;;18.66;73.40;100126.75;5052431;28;853;-62
2021/11/04 09:58:55;;;;;;;;;;;;;;;18.53;72.01;100139.97;5052442;28;885;-61
2021/11/04 10:01:26;;;;;;;;;;;;;;;18.52;73.21;100132.81;5052338;28;862;-61
2021/11/04 10:03:53;;;;;;;;;;;;;;;18.55;73.23;100131.91;5052498;28;814;-62
2021/11/04 10:06:29;;;;;;;;;;;;;;;18.60;72.15;100130.56;5052129;28;1910;-61
2021/11/04 10:08:58;;;;;;;;;;;;;;;18.60;72.67;100119.38;5052335;28;818;-61
2021/11/04 10:11:28;;;;;;;;;;;;;;;18.51;72.14;100120.84;5052381;28;846;-61
2021/11/04 10:13:59;;;;;;;;;;;;;;;18.62;73.06;100103.69;5052391;28;858;-62
2021/11/04 10:16:27;;;;;;;;;;;;;;;18.78;72.36;100108.41;5052316;28;826;-61
2021/11/04 10:18:54;;;;;;;;;;;;;;;18.86;72.36;100104.13;5052306;28;1290;-62
2021/11/04 10:21:24;;;;;;;;;;;;;;;19.12;71.42;100106.84;5052330;28;901;-61
2021/11/04 10:23:51;;;;;;;;;;;;;;;19.04;71.14;100103.50;5052139;28;830;-61
2021/11/04 10:26:20;;;;;;;;;;;;;;;18.98;71.65;100097.69;5051873;28;1967;-62
2021/11/04 10:28:48;;;;;;;;;;;;;;;18.99;71.25;100104.09;5051996;28;873;-61
2021/11/04 10:31:17;;;;;;;;;;;;;;;19.07;71.33;100091.38;5051962;28;822;-61
2021/11/04 10:33:45;;;;;;;;;;;;;;;19.13;70.78;100092.38;5051922;28;829;-61
2021/11/04 10:36:16;;;;;;;;;;;;;;;19.16;70.76;100096.25;5051912;28;835;-61
2021/11/04 10:38:47;;;;;;;;;;;;;;;19.38;70.71;100097.06;5050554;28;1179;-61
2021/11/04 10:41:22;;;;;;;;;;;;;;;19.44;69.98;100088.06;5051828;28;862;-61
2021/11/04 10:43:50;;;;;;;;;;;;;;;19.33;69.98;100086.47;5051618;28;834;-61
2021/11/04 10:46:17;;;;;;;;;;;;;;;19.41;70.82;100086.19;5051699;28;1886;-61
2021/11/04 10:48:45;;;;;;;;;;;;;;;19.62;70.01;100087.41;5051572;28;811;-61
2021/11/04 10:51:16;;;;;;;;;;;;;;;19.74;69.30;100092.97;5051771;28;823;-61
2021/11/04 10:53:43;;;;;;;;;;;;;;;19.78;69.77;100085.22;5051855;28;877;-62
2021/11/04 10:56:10;;;;;;;;;;;;;;;19.64;69.14;100084.94;5050966;28;865;-61
2021/11/04 10:58:37;;;;;;;;;;;;;;;19.65;69.80;100078.88;5051516;28;853;-61
2021/11/04 11:01:04;;;;;;;;;;;;;;;19.79;69.11;100088.78;5051459;28;806;-61
2021/11/04 11:03:31;;;;;;;;;;;;;;;19.98;69.02;100082.03;5051381;28;965;-61
2021/11/04 11:06:00;;;;;;;;;;;;;;;20.15;68.65;100079.75;5051698;28;1949;-61
2021/11/04 11:08:27;;;;;;;;;;;;;;;20.30;68.34;100079.97;5051408;28;818;-59
2021/11/04 11:10:54;;;;;;;;;;;;;;;20.30;67.40;100074.34;5051351;28;889;-59
2021/11/04 11:13:21;;;;;;;;;;;;;;;20.28;68.16;100067.66;5051251;28;826;-59
2021/11/04 11:15:55;;;;;;;;;;;;;;;20.36;67.67;100058.47;5051340;28;858;-59
2021/11/04 11:18:25;;;;;;;;;;;;;;;20.45;67.78;100056.94;5050934;28;1249;-58
2021/11/04 11:20:52;;;;;;;;;;;;;;;20.43;66.95;100063.00;5051600;28;810;-59
2021/11/04 11:23:20;;;;;;;;;;;;;;;20.42;67.81;100052.22;5051241;28;782;-59
2021/11/04 11:25:56;;;;;;;;;;;;;;;20.50;67.50;100059.88;5051152;28;1914;-59
2021/11/04 11:28:28;;;;;;;;;;;;;;;20.63;66.44;100056.97;5051224;28;841;-58
2021/11/04 11:31:13;;;;;;;;;;;;;;;20.72;66.44;100050.63;5051472;28;842;-59
2021/11/04 11:33:45;;;;;;;;;;;;;;;20.94;66.45;100053.28;5051132;28;885;-59
2021/11/04 11:36:15;;;;;;;;;;;;;;;21.21;65.58;100055.28;5051237;28;802;-58
2021/11/04 11:39:05;;;;;;;;;;;;;;;21.22;65.76;100051.22;5051065;28;909;-59
2021/11/04 11:41:52;;;;;;;;;;;;;;;21.50;65.46;100056.81;5050976;28;815;-58
2021/11/04 11:44:37;;;;;;;;;;;;;;;21.42;64.69;100056.34;5019404;28;1343;-58
2021/11/04 11:47:04;;;;;;;;;;;;;;;21.53;64.84;100053.06;5050952;28;1941;-59
2021/11/04 11:49:34;;;;;;;;;;;;;;;21.52;63.85;100046.66;5051029;28;802;-58
2021/11/04 11:52:00;;;;;;;;;;;;;;;21.57;64.35;100048.03;5051009;28;814;-58
2021/11/04 11:54:45;;;;;;;;;;;;;;;21.70;63.98;100054.28;5051192;28;848;-58
2021/11/04 11:57:12;;;;;;;;;;;;;;;21.68;64.08;100042.72;5033047;28;933;-58
2021/11/04 12:00:08;;;;;;;;;;;;;;;21.76;63.94;100041.13;5050978;28;884;-58
2021/11/04 12:02:37;;;;;;;;;;;;;;;21.86;63.18;100043.91;5033756;28;1358;-58
2021/11/04 12:05:22;;;;;;;;;;;;;;;21.79;63.66;100045.81;5050866;28;794;-58
2021/11/04 12:07:52;;;;;;;;;;;;;;;21.98;63.28;100042.94;5053512;28;1957;-58
2021/11/04 12:10:30;;;;;;;;;;;;;;;22.03;62.85;100043.03;5054501;28;843;-58
2021/11/04 12:12:59;;;;;;;;;;;;;;;22.02;62.33;100044.31;5054689;28;794;-58
2021/11/04 12:15:26;;;;;;;;;;;;;;;21.92;62.75;100048.41;5054367;28;913;-58
2021/11/04 12:18:11;;;;;;;;;;;;;;;21.97;62.66;100041.34;5054492;28;929;-58
2021/11/04 12:20:46;;;;;;;;;;;;;;;22.03;62.36;100043.03;5054503;28;807;-58
2021/11/04 12:23:13;;;;;;;;;;;;;;;21.99;62.31;100038.84;5054247;28;858;-58
2021/11/04 12:25:43;;;;;;;;;;;;;;;22.08;62.38;100035.97;5054156;28;834;-58
2021/11/04 12:28:09;;;;;;;;;;;;;;;22.15;62.59;100037.69;5054154;28;815;-58
2021/11/04 12:30:38;;;;;;;;;;;;;;;22.10;62.25;100044.72;5054071;28;836;-57
2021/11/04 12:33:06;;;;;;;;;;;;;;;22.21;62.77;100038.56;5036136;28;1272;-58
2021/11/04 12:36:00;;;;;;;;;;;;;;;22.47;62.33;100040.94;5053942;28;857;-58
2021/11/04 12:38:46;;;;;;;;;;;;;;;22.44;61.51;100042.69;5054137;28;909;-58
2021/11/04 12:41:15;;;;;;;;;;;;;;;22.32;62.01;100043.69;5053883;28;890;-58
2021/11/04 12:43:43;;;;;;;;;;;;;;;22.19;62.20;100035.44;5054383;28;810;-58
2021/11/04 12:46:14;;;;;;;;;;;;;;;22.15;62.19;100032.81;5053920;28;1957;-57
2021/11/04 12:48:59;;;;;;;;;;;;;;;22.12;62.57;100030.19;5053851;28;806;-57
2021/11/04 12:51:28;;;;;;;;;;;;;;;22.09;62.34;100025.53;5053804;28;826;-57
2021/11/04 12:53:58;;;;;;;;;;;;;;;21.99;62.22;100028.34;5053714;28;884;-57
2021/11/04 12:56:38;;;;;;;;;;;;;;;22.20;62.86;100032.16;5053615;28;881;-57
2021/11/04 12:59:05;;;;;;;;;;;;;;;22.20;61.95;100032.16;5053567;28;946;-57
2021/11/04 13:01:31;;;;;;;;;;;;;;;22.10;62.43;100039.09;5052242;28;892;-57
2021/11/04 13:03:58;;;;;;;;;;;;;;;22.03;62.92;100036.63;5052272;28;1318;-57
2021/11/04 13:06:25;;;;;;;;;;;;;;;22.08;62.73;100038.78;5053387;28;1898;-58